Time;durP1;ratioP1;P1;durP2;ratioP2;P2;SDS_P1;SDS_P2;PMS_P1;PMS_P2;Temp;Humidity;BMP_temperature;BMP_pressure;BME280_temperature;BME280_humidity;BME280_pressure;Samples;Min_cycle;Max_cycle;Signal;HPM_P1;HPM_P2
2023/06/04 00:00:49;;;;;;;7.77;6.97;;;16.10;99.90;;;;;;5050620;28;20193;-43
2023/06/04 00:03:15;;;;;;;8.20;7.30;;;16.00;99.90;;;;;;5049703;28;20182;-42
2023/06/04 00:05:40;;;;;;;9.60;7.67;;;15.90;99.90;;;;;;5050272;28;20205;-42
2023/06/04 00:08:06;;;;;;;9.10;7.03;;;15.80;99.90;;;;;;5028562;28;20190;-43
2023/06/04 00:10:33;;;;;;;9.00;7.60;;;15.70;99.90;;;;;;5032754;28;20185;-42
2023/06/04 00:12:59;;;;;;;10.20;7.77;;;15.70;99.90;;;;;;5050218;28;20268;-43
2023/06/04 00:15:25;;;;;;;9.13;7.43;;;15.60;99.90;;;;;;5050133;28;20300;-42
2023/06/04 00:17:51;;;;;;;11.77;7.63;;;15.60;99.90;;;;;;5032936;28;20224;-42
2023/06/04 00:20:17;;;;;;;11.07;8.20;;;15.50;99.90;;;;;;5049827;28;20182;-41
2023/06/04 00:22:43;;;;;;;10.00;7.70;;;15.50;99.90;;;;;;5045727;28;20181;-42
2023/06/04 00:25:10;;;;;;;9.20;7.93;;;15.50;99.90;;;;;;5036956;28;20205;-42
2023/06/04 00:27:36;;;;;;;8.37;7.50;;;15.30;99.90;;;;;;5033167;28;20185;-42
2023/06/04 00:30:03;;;;;;;11.33;7.70;;;15.30;99.90;;;;;;5029247;28;20187;-42
2023/06/04 00:32:29;;;;;;;8.33;7.43;;;15.20;99.90;;;;;;5031662;28;20661;-42
2023/06/04 00:34:57;;;;;;;9.50;7.27;;;15.20;99.90;;;;;;5024735;28;20225;-42
2023/06/04 00:37:25;;;;;;;7.33;6.63;;;15.20;99.90;;;;;;5031804;28;20217;-43
2023/06/04 00:39:51;;;;;;;8.67;7.03;;;15.20;99.90;;;;;;5026295;28;20193;-41
2023/06/04 00:42:18;;;;;;;9.60;7.63;;;15.20;99.90;;;;;;5049484;28;20181;-43
2023/06/04 00:44:45;;;;;;;9.67;8.07;;;15.20;99.90;;;;;;5025083;28;20193;-41
2023/06/04 00:47:15;;;;;;;9.33;8.37;;;15.20;99.90;;;;;;5032790;28;20285;-42
2023/06/04 00:49:41;;;;;;;8.97;6.83;;;15.20;99.90;;;;;;5051134;28;20205;-43
2023/06/04 00:52:14;;;;;;;12.00;7.73;;;15.10;99.90;;;;;;5032797;28;20177;-42
2023/06/04 00:54:40;;;;;;;10.60;7.50;;;15.00;99.90;;;;;;5049054;28;20193;-39
2023/06/04 00:57:08;;;;;;;15.07;8.37;;;14.90;99.90;;;;;;5049132;28;20224;-43
2023/06/04 00:59:37;;;;;;;12.87;7.83;;;14.80;99.90;;;;;;5047809;28;20187;-41
2023/06/04 01:02:23;;;;;;;8.73;7.53;;;14.80;99.90;;;;;;5032721;28;20178;-43
2023/06/04 01:05:16;;;;;;;10.63;7.40;;;14.80;99.90;;;;;;5038791;28;20202;-42
2023/06/04 01:07:46;;;;;;;11.33;7.53;;;14.80;99.90;;;;;;5031188;28;20192;-42
2023/06/04 01:10:13;;;;;;;9.93;8.13;;;14.70;99.90;;;;;;5032587;28;20216;-39
2023/06/04 01:12:42;;;;;;;9.77;7.93;;;14.50;99.90;;;;;;5049390;28;20227;-43
2023/06/04 01:15:09;;;;;;;11.10;8.20;;;14.60;99.90;;;;;;5032432;28;20201;-41
2023/06/04 01:18:03;;;;;;;11.67;8.20;;;14.50;99.90;;;;;;5032281;28;20238;-43
2023/06/04 01:20:32;;;;;;;10.20;8.40;;;14.50;99.90;;;;;;5048009;28;20208;-39
2023/06/04 01:23:21;;;;;;;10.13;8.03;;;14.50;99.90;;;;;;5039779;28;20205;-43
2023/06/04 01:25:49;;;;;;;10.40;7.60;;;14.40;99.90;;;;;;5025329;28;20185;-43
2023/06/04 01:28:16;;;;;;;10.43;7.93;;;14.40;99.90;;;;;;5032434;28;20268;-40
2023/06/04 01:30:47;;;;;;;9.73;8.23;;;14.40;99.90;;;;;;5044619;28;20641;-40
2023/06/04 01:33:16;;;;;;;13.40;8.40;;;14.40;99.90;;;;;;5048286;28;20200;-42
2023/06/04 01:35:43;;;;;;;9.53;8.40;;;14.40;99.90;;;;;;5031997;28;20182;-41
2023/06/04 01:38:09;;;;;;;10.47;8.00;;;14.30;99.90;;;;;;5026738;28;20300;-43
2023/06/04 01:40:35;;;;;;;10.30;7.57;;;14.30;99.90;;;;;;5030523;28;20201;-43
2023/06/04 01:43:02;;;;;;;9.10;7.63;;;14.30;99.90;;;;;;5053080;28;20178;-42
2023/06/04 01:45:28;;;;;;;9.57;7.73;;;14.30;99.90;;;;;;5036278;28;20201;-43
2023/06/04 01:47:55;;;;;;;9.30;7.80;;;14.30;99.90;;;;;;5035336;28;20186;-41
2023/06/04 01:50:21;;;;;;;11.20;8.10;;;14.30;99.90;;;;;;5036314;28;20225;-40
2023/06/04 01:52:47;;;;;;;8.93;7.63;;;14.20;99.90;;;;;;5040949;28;20271;-41
2023/06/04 01:55:15;;;;;;;9.17;7.63;;;14.20;99.90;;;;;;5048326;28;20206;-42
2023/06/04 01:57:43;;;;;;;10.33;8.37;;;14.20;99.90;;;;;;5051700;28;20201;-42
2023/06/04 02:00:11;;;;;;;12.73;8.10;;;14.10;99.90;;;;;;5052404;28;20189;-42
2023/06/04 02:02:45;;;;;;;10.70;8.10;;;14.10;99.90;;;;;;5051756;28;20180;-40
2023/06/04 02:05:11;;;;;;;10.20;8.10;;;14.10;99.90;;;;;;5052777;28;20248;-43
2023/06/04 02:07:44;;;;;;;10.83;7.87;;;14.00;99.90;;;;;;5034918;28;20185;-42
2023/06/04 02:10:13;;;;;;;12.40;7.87;;;14.00;99.90;;;;;;5047791;28;20254;-42
2023/06/04 02:12:40;;;;;;;8.90;7.77;;;13.90;99.90;;;;;;5050736;28;20190;-42
2023/06/04 02:15:09;;;;;;;11.77;8.53;;;13.80;99.90;;;;;;5035603;28;20216;-41
2023/06/04 02:17:39;;;;;;;9.63;8.10;;;13.70;99.90;;;;;;5035367;28;20440;-42
2023/06/04 02:20:06;;;;;;;10.70;8.43;;;13.60;99.90;;;;;;5035947;28;20181;-42
2023/06/04 02:22:32;;;;;;;8.70;7.80;;;13.60;99.90;;;;;;5052111;28;20276;-43
2023/06/04 02:24:59;;;;;;;9.40;7.40;;;13.50;99.90;;;;;;5043996;28;20232;-43
2023/06/04 02:27:25;;;;;;;12.33;8.60;;;13.40;99.90;;;;;;5035236;28;20215;-42
2023/06/04 02:29:51;;;;;;;10.07;8.00;;;13.30;99.90;;;;;;5035866;28;20189;-40
2023/06/04 02:32:17;;;;;;;12.53;8.60;;;13.30;99.90;;;;;;5035351;28;20184;-43
2023/06/04 02:34:43;;;;;;;10.13;8.13;;;13.30;99.90;;;;;;5034881;28;20221;-38
2023/06/04 02:37:08;;;;;;;10.83;8.50;;;13.30;99.90;;;;;;5035399;28;20226;-42
2023/06/04 02:39:35;;;;;;;8.40;7.60;;;13.20;99.90;;;;;;5042009;28;20190;-43
2023/06/04 02:42:01;;;;;;;9.37;8.27;;;13.30;99.90;;;;;;5051644;28;20189;-42
2023/06/04 02:44:29;;;;;;;9.97;8.00;;;13.30;99.90;;;;;;5034749;28;20266;-41
2023/06/04 02:46:55;;;;;;;11.57;8.67;;;13.30;99.90;;;;;;5035043;28;20270;-40
2023/06/04 02:49:21;;;;;;;10.57;8.33;;;13.30;99.90;;;;;;5045123;28;20324;-41
2023/06/04 02:51:47;;;;;;;9.57;8.57;;;13.20;99.90;;;;;;5027675;28;20204;-42
2023/06/04 02:54:13;;;;;;;9.50;8.27;;;13.10;99.90;;;;;;5040565;28;20555;-43
2023/06/04 02:56:39;;;;;;;10.87;8.67;;;13.10;99.90;;;;;;5041660;28;20217;-43
2023/06/04 02:59:05;;;;;;;9.00;7.67;;;13.00;99.90;;;;;;5034057;28;20208;-39
2023/06/04 03:01:33;;;;;;;9.20;8.30;;;13.10;99.90;;;;;;5034105;28;20271;-42
2023/06/04 03:03:59;;;;;;;11.50;8.37;;;13.00;99.90;;;;;;5050942;28;20294;-43
2023/06/04 03:06:25;;;;;;;9.00;8.10;;;13.00;99.90;;;;;;5034496;28;20187;-42
2023/06/04 03:08:52;;;;;;;9.17;8.03;;;13.10;99.90;;;;;;5027624;28;20193;-42
2023/06/04 03:11:20;;;;;;;10.07;8.30;;;13.10;99.90;;;;;;5034556;28;20237;-42
2023/06/04 03:13:48;;;;;;;12.57;8.37;;;13.10;99.90;;;;;;5051187;28;20200;-42
2023/06/04 03:16:14;;;;;;;9.37;7.67;;;13.00;99.90;;;;;;5030963;28;20206;-42
2023/06/04 03:18:41;;;;;;;11.47;8.23;;;13.00;99.90;;;;;;5033633;28;20199;-43
2023/06/04 03:21:08;;;;;;;10.80;7.77;;;12.90;99.90;;;;;;5034289;28;20245;-42
2023/06/04 03:23:35;;;;;;;10.07;8.33;;;12.90;99.90;;;;;;5048534;28;20221;-42
2023/06/04 03:26:02;;;;;;;9.43;8.40;;;12.90;99.90;;;;;;5034466;28;20179;-43
2023/06/04 03:28:29;;;;;;;8.50;7.60;;;12.80;99.90;;;;;;5034290;28;20212;-43
2023/06/04 03:30:56;;;;;;;10.00;7.70;;;12.80;99.90;;;;;;5050954;28;20179;-42
2023/06/04 03:33:24;;;;;;;9.83;8.33;;;12.80;99.90;;;;;;5034647;28;20196;-42
2023/06/04 03:35:53;;;;;;;9.97;7.77;;;12.80;99.90;;;;;;5050665;28;20182;-42
2023/06/04 03:38:19;;;;;;;9.77;8.13;;;12.80;99.90;;;;;;5034529;28;20278;-42
2023/06/04 03:40:46;;;;;;;10.00;8.20;;;12.80;99.90;;;;;;5034175;28;20187;-40
2023/06/04 03:43:14;;;;;;;10.87;8.17;;;12.80;99.90;;;;;;5050803;28;20182;-42
2023/06/04 03:45:42;;;;;;;9.33;8.33;;;12.80;99.90;;;;;;5034110;28;20214;-41
2023/06/04 03:48:08;;;;;;;9.67;8.07;;;12.80;99.90;;;;;;5033366;28;20320;-43
2023/06/04 03:50:35;;;;;;;9.20;7.67;;;12.70;99.90;;;;;;5046455;28;20187;-40
2023/06/04 03:53:04;;;;;;;10.03;7.97;;;12.70;99.90;;;;;;5048467;28;20178;-43
2023/06/04 03:55:34;;;;;;;10.00;8.97;;;12.70;99.90;;;;;;5036797;28;20202;-43
2023/06/04 03:58:01;;;;;;;9.00;8.10;;;12.70;99.90;;;;;;5050338;28;20230;-42
2023/06/04 04:00:28;;;;;;;11.10;9.17;;;12.70;99.90;;;;;;5033742;28;20172;-42
2023/06/04 04:02:57;;;;;;;10.47;8.53;;;12.70;99.90;;;;;;5034209;28;20182;-42
2023/06/04 04:05:26;;;;;;;11.60;8.87;;;12.70;99.90;;;;;;5049736;28;20227;-38
2023/06/04 04:07:53;;;;;;;9.70;8.37;;;12.80;99.90;;;;;;5030443;28;20190;-42
2023/06/04 04:10:23;;;;;;;10.83;8.50;;;12.80;99.90;;;;;;5034096;28;20212;-39
2023/06/04 04:12:51;;;;;;;11.20;9.47;;;12.80;99.90;;;;;;5050079;28;20274;-42
2023/06/04 04:15:18;;;;;;;15.30;9.77;;;12.80;99.90;;;;;;5029742;28;20343;-42
2023/06/04 04:17:44;;;;;;;9.90;8.90;;;12.90;99.90;;;;;;5050493;28;20240;-41
2023/06/04 04:20:11;;;;;;;10.60;9.37;;;13.00;99.90;;;;;;5032806;28;20172;-41
2023/06/04 04:22:42;;;;;;;10.93;8.87;;;13.10;99.90;;;;;;5039511;28;20190;-42
2023/06/04 04:25:10;;;;;;;11.10;8.73;;;13.20;99.90;;;;;;5055801;28;20203;-43
2023/06/04 04:27:40;;;;;;;11.73;8.83;;;13.20;99.90;;;;;;5031069;28;20193;-43
2023/06/04 04:30:09;;;;;;;11.10;8.83;;;13.30;99.90;;;;;;5033475;28;20269;-37
2023/06/04 04:32:38;;;;;;;11.53;9.40;;;13.40;99.90;;;;;;5049310;28;20191;-43
2023/06/04 04:35:07;;;;;;;14.03;10.37;;;13.40;99.90;;;;;;5049427;28;20280;-43
2023/06/04 04:37:38;;;;;;;11.40;8.73;;;13.60;99.90;;;;;;5032484;28;20322;-43
2023/06/04 04:40:09;;;;;;;11.23;10.03;;;13.60;99.90;;;;;;5027080;28;20172;-39
2023/06/04 04:42:35;;;;;;;9.83;8.60;;;13.50;99.90;;;;;;5033287;28;20183;-40
2023/06/04 04:45:03;;;;;;;9.90;8.67;;;13.50;99.90;;;;;;5049328;28;20196;-40
2023/06/04 04:47:30;;;;;;;12.67;8.97;;;13.50;99.90;;;;;;5048983;28;20177;-43
2023/06/04 04:49:56;;;;;;;9.73;8.73;;;13.50;99.90;;;;;;5029881;28;20196;-43
2023/06/04 04:52:22;;;;;;;9.73;8.77;;;13.60;99.90;;;;;;5041860;28;20184;-42
2023/06/04 04:54:47;;;;;;;10.63;8.77;;;13.60;99.90;;;;;;5058628;28;20208;-42
2023/06/04 04:57:14;;;;;;;9.63;8.47;;;13.60;99.90;;;;;;5049148;28;20210;-42
2023/06/04 04:59:43;;;;;;;8.33;7.50;;;13.60;99.90;;;;;;5049288;28;20187;-41
2023/06/04 05:02:09;;;;;;;10.83;8.70;;;13.70;99.90;;;;;;5028702;28;20182;-41
2023/06/04 05:04:35;;;;;;;9.83;8.47;;;13.60;99.90;;;;;;5027497;28;20356;-43
2023/06/04 05:07:01;;;;;;;10.67;9.03;;;13.70;99.90;;;;;;5029182;28;20180;-43
2023/06/04 05:09:27;;;;;;;11.87;9.20;;;13.70;99.90;;;;;;5025501;28;20188;-43
2023/06/04 05:11:53;;;;;;;10.37;9.13;;;13.80;99.90;;;;;;5032161;28;20180;-42
2023/06/04 05:14:18;;;;;;;12.30;9.13;;;13.80;99.90;;;;;;5049477;28;20205;-42
2023/06/04 05:16:45;;;;;;;11.93;9.17;;;13.90;99.90;;;;;;5051379;28;20205;-43
2023/06/04 05:19:12;;;;;;;10.40;9.00;;;14.10;99.90;;;;;;5053363;28;20177;-43
2023/06/04 05:21:40;;;;;;;11.20;8.83;;;14.20;99.90;;;;;;5038796;28;20271;-43
2023/06/04 05:24:06;;;;;;;12.20;9.33;;;14.20;99.90;;;;;;5066198;28;20208;-43
2023/06/04 05:26:37;;;;;;;10.83;8.93;;;14.20;99.90;;;;;;5055816;28;20189;-43
2023/06/04 05:29:10;;;;;;;11.67;9.30;;;14.30;99.90;;;;;;5033238;28;20189;-42
2023/06/04 05:31:39;;;;;;;12.40;8.43;;;14.50;99.90;;;;;;5052988;28;20272;-42
2023/06/04 05:34:08;;;;;;;10.70;8.63;;;14.60;99.90;;;;;;5036905;28;20718;-43
2023/06/04 05:36:37;;;;;;;8.80;7.83;;;14.80;99.90;;;;;;5036240;28;20305;-42
2023/06/04 05:39:06;;;;;;;11.07;9.20;;;14.80;99.90;;;;;;5036633;28;20268;-43
2023/06/04 05:41:55;;;;;;;9.20;8.30;;;15.00;99.90;;;;;;5046929;28;20272;-42
2023/06/04 05:44:21;;;;;;;11.00;8.80;;;15.10;99.90;;;;;;5054366;28;20194;-43
2023/06/04 05:46:48;;;;;;;9.70;8.50;;;15.30;99.90;;;;;;5035291;28;20197;-43
2023/06/04 05:49:14;;;;;;;11.27;8.80;;;15.40;99.90;;;;;;5053049;28;20204;-43
2023/06/04 05:51:40;;;;;;;9.80;8.80;;;15.50;99.90;;;;;;5053720;28;20178;-43
2023/06/04 05:54:06;;;;;;;11.13;9.07;;;15.50;99.90;;;;;;5065606;28;20197;-42
2023/06/04 05:56:35;;;;;;;8.77;7.83;;;15.70;99.90;;;;;;5036560;28;20210;-41
2023/06/04 05:59:02;;;;;;;11.83;8.80;;;15.70;99.90;;;;;;5036116;28;20184;-43
2023/06/04 06:01:28;;;;;;;9.10;8.17;;;15.90;99.90;;;;;;5035506;28;20178;-42
2023/06/04 06:03:55;;;;;;;10.00;8.60;;;16.00;99.90;;;;;;5052387;28;20236;-40
2023/06/04 06:06:23;;;;;;;10.23;8.17;;;16.10;99.90;;;;;;5052319;28;20185;-43
2023/06/04 06:08:49;;;;;;;11.60;8.30;;;16.20;99.90;;;;;;5035378;28;20178;-42
2023/06/04 06:11:16;;;;;;;8.00;7.20;;;16.40;99.90;;;;;;5035670;28;20185;-42
2023/06/04 06:13:42;;;;;;;10.10;7.93;;;16.50;99.90;;;;;;5035438;28;20198;-43
2023/06/04 06:16:09;;;;;;;9.10;8.17;;;16.70;99.90;;;;;;5036134;28;20274;-42
2023/06/04 06:18:35;;;;;;;8.87;7.33;;;16.80;99.90;;;;;;5035723;28;20237;-43
2023/06/04 06:21:00;;;;;;;7.77;6.07;;;17.00;99.90;;;;;;5052300;28;20181;-43
2023/06/04 06:23:26;;;;;;;8.30;5.40;;;17.00;99.90;;;;;;5051466;28;20177;-43
2023/06/04 06:25:52;;;;;;;9.30;6.20;;;17.20;99.90;;;;;;5044559;28;20182;-43
2023/06/04 06:28:28;;;;;;;7.60;6.23;;;17.40;99.90;;;;;;5052061;28;20174;-43
2023/06/04 06:30:54;;;;;;;8.17;5.57;;;17.50;99.90;;;;;;5051794;28;20185;-43
2023/06/04 06:33:23;;;;;;;8.77;6.20;;;17.60;99.90;;;;;;5052353;28;20190;-42
2023/06/04 06:35:49;;;;;;;7.20;6.32;;;17.90;99.90;;;;;;5050699;28;20205;-43
2023/06/04 06:38:15;;;;;;;7.97;6.40;;;18.00;99.90;;;;;;5049634;28;20200;-43
2023/06/04 06:40:40;;;;;;;8.48;5.97;;;18.20;99.90;;;;;;5052859;28;20177;-42
2023/06/04 06:43:06;;;;;;;11.35;6.65;;;18.20;99.90;;;;;;5034570;28;20188;-38
2023/06/04 06:45:32;;;;;;;7.85;5.93;;;18.20;99.90;;;;;;5051872;28;20201;-43
2023/06/04 06:47:58;;;;;;;5.63;4.93;;;18.40;99.90;;;;;;5053015;28;20316;-41
2023/06/04 06:50:23;;;;;;;6.43;4.82;;;18.50;99.90;;;;;;5051801;28;20173;-43
2023/06/04 06:52:49;;;;;;;5.72;4.93;;;18.60;99.90;;;;;;5045377;28;20269;-42
2023/06/04 06:55:15;;;;;;;4.88;4.30;;;18.70;99.90;;;;;;5065594;28;20221;-41
2023/06/04 06:57:41;;;;;;;6.90;4.80;;;18.80;99.90;;;;;;5051527;28;20225;-43
2023/06/04 07:00:08;;;;;;;6.13;4.28;;;19.00;99.90;;;;;;5053073;28;20222;-32
2023/06/04 07:02:34;;;;;;;7.20;4.75;;;19.10;99.90;;;;;;5051859;28;20185;-42
2023/06/04 07:05:00;;;;;;;5.20;4.70;;;19.20;99.90;;;;;;5051354;28;20205;-42
2023/06/04 07:07:26;;;;;;;5.13;3.85;;;19.30;99.90;;;;;;5051042;28;20276;-41
2023/06/04 07:09:52;;;;;;;7.25;4.47;;;19.50;99.90;;;;;;5033154;28;20185;-42
2023/06/04 07:12:18;;;;;;;5.90;4.20;;;19.60;99.90;;;;;;5031579;28;20178;-43
2023/06/04 07:14:44;;;;;;;5.28;4.25;;;19.80;99.90;;;;;;5051390;28;20206;-42
2023/06/04 07:17:10;;;;;;;5.85;4.65;;;19.90;99.90;;;;;;5050905;28;20216;-43
2023/06/04 07:19:36;;;;;;;6.03;4.72;;;20.10;99.90;;;;;;5051418;28;20182;-38
2023/06/04 07:22:02;;;;;;;7.55;4.88;;;20.20;99.90;;;;;;5034150;28;20189;-43
2023/06/04 07:24:28;;;;;;;5.82;5.20;;;20.40;99.90;;;;;;5047879;28;20198;-43
2023/06/04 07:26:53;;;;;;;6.00;5.18;;;20.60;99.90;;;;;;5050470;28;20182;-42
2023/06/04 07:29:19;;;;;;;7.80;5.05;;;20.60;99.90;;;;;;5052654;28;20188;-43
2023/06/04 07:31:45;;;;;;;6.03;5.18;;;20.70;99.90;;;;;;5034387;28;20217;-43
2023/06/04 07:34:11;;;;;;;4.90;4.40;;;20.70;99.90;;;;;;5050850;28;20214;-43
2023/06/04 07:36:37;;;;;;;6.13;4.80;;;20.70;99.90;;;;;;5030633;28;20206;-43
2023/06/04 07:39:04;;;;;;;5.30;4.05;;;20.80;99.90;;;;;;5044865;28;20194;-42
2023/06/04 07:41:30;;;;;;;7.30;4.80;;;20.80;99.90;;;;;;5050981;28;20178;-43
2023/06/04 07:43:56;;;;;;;6.32;4.07;;;20.90;99.90;;;;;;5033069;28;20201;-43
2023/06/04 07:46:21;;;;;;;4.53;4.13;;;21.00;99.90;;;;;;5050565;28;20185;-43
2023/06/04 07:48:47;;;;;;;5.13;4.25;;;21.10;99.90;;;;;;5050689;28;20287;-43
2023/06/04 07:51:14;;;;;;;7.80;3.95;;;21.30;99.90;;;;;;5050655;28;20186;-41
2023/06/04 07:53:40;;;;;;;5.53;3.67;;;21.40;99.90;;;;;;5059970;28;20205;-43
2023/06/04 07:56:06;;;;;;;4.68;3.22;;;21.50;99.90;;;;;;5033715;28;20185;-43
2023/06/04 07:58:32;;;;;;;4.95;3.17;;;21.60;99.90;;;;;;5050511;28;20204;-42
2023/06/04 08:00:58;;;;;;;3.70;3.40;;;21.70;99.90;;;;;;5049644;28;20181;-43
2023/06/04 08:03:24;;;;;;;5.47;3.15;;;21.70;99.90;;;;;;5033046;28;20236;-41
2023/06/04 08:05:50;;;;;;;6.78;3.33;;;21.70;99.90;;;;;;5033781;28;20178;-42
2023/06/04 08:08:16;;;;;;;4.63;3.15;;;21.80;99.90;;;;;;5048830;28;20185;-40
2023/06/04 08:10:42;;;;;;;4.53;2.97;;;22.00;99.90;;;;;;5033382;28;20209;-43
2023/06/04 08:13:09;;;;;;;6.10;3.13;;;22.10;99.90;;;;;;5050105;28;20210;-42
2023/06/04 08:15:35;;;;;;;4.85;3.42;;;22.30;99.90;;;;;;5050133;28;20205;-43
2023/06/04 08:18:01;;;;;;;3.45;2.90;;;22.40;99.90;;;;;;5051064;28;20232;-43
2023/06/04 08:20:27;;;;;;;4.38;3.08;;;22.50;99.90;;;;;;5041872;28;20183;-41
2023/06/04 08:22:53;;;;;;;5.85;3.47;;;22.40;99.90;;;;;;5036762;28;20228;-43
2023/06/04 08:25:18;;;;;;;3.30;3.00;;;22.50;99.90;;;;;;5033639;28;20293;-43
2023/06/04 08:27:44;;;;;;;4.82;3.30;;;22.70;99.90;;;;;;5049715;28;20206;-43
2023/06/04 08:30:10;;;;;;;6.70;3.10;;;23.00;99.90;;;;;;5033200;28;20178;-43
2023/06/04 08:32:36;;;;;;;4.32;3.05;;;23.10;99.90;;;;;;5050855;28;20241;-42
2023/06/04 08:35:02;;;;;;;4.80;3.08;;;23.20;99.90;;;;;;5049625;28;20383;-42
2023/06/04 08:37:28;;;;;;;3.50;3.10;;;23.40;99.90;;;;;;5049889;28;20351;-42
2023/06/04 08:39:54;;;;;;;3.35;3.05;;;23.60;99.90;;;;;;5029754;28;20269;-41
2023/06/04 08:42:29;;;;;;;3.60;3.30;;;23.70;99.90;;;;;;5051083;28;20190;-43
2023/06/04 08:44:57;;;;;;;4.47;2.83;;;23.80;99.90;;;;;;5049503;28;20202;-43
2023/06/04 08:47:26;;;;;;;3.38;2.97;;;23.90;99.90;;;;;;5049022;28;20184;-41
2023/06/04 08:49:53;;;;;;;3.53;2.83;;;24.00;99.90;;;;;;5049655;28;20185;-43
2023/06/04 08:52:21;;;;;;;3.97;3.28;;;24.10;99.90;;;;;;5039865;28;20189;-42
2023/06/04 08:54:51;;;;;;;3.78;3.35;;;24.20;99.90;;;;;;5043883;28;20263;-43
2023/06/04 08:57:20;;;;;;;4.03;3.17;;;24.50;99.90;;;;;;5050768;28;20293;-43
2023/06/04 08:59:47;;;;;;;4.95;2.97;;;24.50;99.90;;;;;;5049789;28;20178;-43
2023/06/04 09:02:14;;;;;;;5.20;3.42;;;24.70;99.90;;;;;;5049511;28;20201;-40
2023/06/04 09:04:41;;;;;;;4.78;3.35;;;24.80;99.90;;;;;;5049537;28;20198;-43
2023/06/04 09:07:10;;;;;;;3.85;3.08;;;24.90;99.90;;;;;;5049280;28;20193;-43
2023/06/04 09:09:39;;;;;;;4.18;3.03;;;25.10;99.90;;;;;;5026360;28;20189;-42
2023/06/04 09:12:09;;;;;;;6.20;3.40;;;25.20;99.90;;;;;;5047870;28;20294;-42
2023/06/04 09:14:35;;;;;;;3.88;3.10;;;25.20;99.90;;;;;;5048391;28;20198;-43
2023/06/04 09:17:01;;;;;;;5.18;3.20;;;25.40;99.90;;;;;;5031568;28;20228;-42
2023/06/04 09:19:27;;;;;;;4.47;3.10;;;25.60;99.90;;;;;;5048677;28;20379;-43
2023/06/04 09:21:58;;;;;;;4.05;3.05;;;25.70;99.90;;;;;;5054103;28;20240;-43
2023/06/04 09:24:38;;;;;;;4.80;3.13;;;26.00;99.90;;;;;;5040041;28;20283;-43
2023/06/04 09:27:13;;;;;;;3.33;2.90;;;26.00;99.90;;;;;;5049092;28;20188;-43
2023/06/04 09:29:48;;;;;;;4.90;3.60;;;26.00;99.90;;;;;;5049065;28;20178;-43
2023/06/04 09:32:14;;;;;;;4.28;3.22;;;26.10;99.90;;;;;;5032518;28;20189;-43
2023/06/04 09:34:44;;;;;;;4.00;3.38;;;26.10;99.90;;;;;;5048963;28;20271;-43
2023/06/04 09:37:15;;;;;;;4.40;3.28;;;26.30;99.90;;;;;;5048839;28;20206;-43
2023/06/04 09:39:41;;;;;;;5.20;3.45;;;26.40;99.90;;;;;;5030090;28;20202;-43
2023/06/04 09:42:07;;;;;;;3.50;3.20;;;26.40;99.90;;;;;;5031891;28;20257;-44
2023/06/04 09:44:44;;;;;;;4.07;3.00;;;26.50;99.90;;;;;;5049123;28;20189;-43
2023/06/04 09:47:10;;;;;;;5.75;3.60;;;26.60;99.90;;;;;;5032252;28;20273;-43
2023/06/04 09:49:46;;;;;;;4.15;3.47;;;26.70;99.90;;;;;;5049233;28;20258;-43
2023/06/04 09:52:13;;;;;;;4.25;3.35;;;26.80;99.90;;;;;;5054085;28;20190;-43
2023/06/04 09:54:41;;;;;;;4.32;3.30;;;26.90;99.90;;;;;;5057450;28;20268;-44
2023/06/04 09:57:16;;;;;;;4.88;3.10;;;27.00;99.90;;;;;;5048591;28;20217;-43
2023/06/04 09:59:48;;;;;;;4.63;3.45;;;27.00;99.90;;;;;;5029102;28;20189;-42
2023/06/04 10:02:15;;;;;;;3.55;3.25;;;27.00;99.90;;;;;;5030222;28;20182;-44
2023/06/04 10:04:45;;;;;;;3.80;3.50;;;26.90;99.50;;;;;;5049225;28;20225;-43
2023/06/04 10:07:12;;;;;;;3.47;3.17;;;27.00;99.90;;;;;;5036237;28;20185;-43
2023/06/04 10:09:46;;;;;;;6.30;3.40;;;27.00;99.70;;;;;;5033075;28;20208;-43
2023/06/04 10:12:16;;;;;;;4.75;3.60;;;27.10;99.90;;;;;;5052908;28;20185;-42
2023/06/04 10:14:56;;;;;;;4.78;3.40;;;26.90;99.90;;;;;;5035804;28;20210;-43
2023/06/04 10:17:24;;;;;;;5.55;3.60;;;27.00;99.90;;;;;;5031417;28;20206;-42
2023/06/04 10:19:53;;;;;;;4.22;3.40;;;26.90;98.60;;;;;;5050659;28;20178;-43
2023/06/04 10:22:20;;;;;;;3.72;3.20;;;27.10;99.40;;;;;;5057392;28;20182;-43
2023/06/04 10:24:46;;;;;;;4.18;3.38;;;27.20;99.90;;;;;;5036076;28;20208;-43
2023/06/04 10:27:13;;;;;;;4.10;3.63;;;27.20;99.20;;;;;;5035624;28;20186;-42
2023/06/04 10:29:39;;;;;;;3.80;3.50;;;27.40;98.80;;;;;;5052967;28;20637;-43
2023/06/04 10:32:05;;;;;;;6.00;3.72;;;27.50;98.90;;;;;;5051439;28;20277;-42
2023/06/04 10:34:32;;;;;;;4.35;3.58;;;27.70;98.20;;;;;;5052164;28;20213;-42
2023/06/04 10:36:58;;;;;;;4.65;3.40;;;27.70;99.00;;;;;;5035420;28;20296;-43
2023/06/04 10:39:33;;;;;;;5.78;4.13;;;27.50;98.90;;;;;;5032618;28;20185;-43
2023/06/04 10:42:05;;;;;;;4.35;3.80;;;27.70;99.20;;;;;;5051898;28;20169;-43
2023/06/04 10:44:32;;;;;;;5.88;3.80;;;27.90;97.90;;;;;;5035185;28;20198;-43
2023/06/04 10:46:58;;;;;;;5.25;4.03;;;27.90;98.30;;;;;;5051872;28;20201;-43
2023/06/04 10:49:28;;;;;;;4.82;3.88;;;28.10;97.30;;;;;;5035463;28;20182;-43
2023/06/04 10:52:03;;;;;;;5.90;3.80;;;28.10;98.00;;;;;;5056166;28;20294;-43
2023/06/04 10:54:29;;;;;;;4.30;3.83;;;28.30;97.90;;;;;;5051452;28;20200;-43
2023/06/04 10:56:55;;;;;;;3.95;3.55;;;28.40;96.90;;;;;;5034849;28;20304;-43
2023/06/04 10:59:21;;;;;;;4.13;3.13;;;28.60;96.40;;;;;;5035219;28;20308;-43
2023/06/04 11:01:47;;;;;;;4.57;3.92;;;28.60;97.20;;;;;;5034901;28;20182;-43
2023/06/04 11:04:20;;;;;;;4.85;3.90;;;28.50;96.00;;;;;;5051356;28;20217;-43
2023/06/04 11:06:46;;;;;;;4.65;3.97;;;28.40;95.90;;;;;;5052494;28;20185;-43
2023/06/04 11:09:16;;;;;;;4.03;3.58;;;28.50;95.60;;;;;;5049592;28;20196;-43
2023/06/04 11:11:43;;;;;;;4.78;4.20;;;28.60;95.20;;;;;;5043168;28;20194;-43
2023/06/04 11:14:16;;;;;;;5.93;4.35;;;28.80;95.90;;;;;;5049093;28;20237;-43
2023/06/04 11:16:42;;;;;;;5.88;4.45;;;28.60;94.50;;;;;;5034376;28;20206;-43
2023/06/04 11:19:08;;;;;;;5.25;4.63;;;28.10;95.40;;;;;;5034417;28;20193;-43
2023/06/04 11:21:36;;;;;;;6.40;4.20;;;27.80;96.30;;;;;;5037092;28;20197;-43
2023/06/04 11:24:03;;;;;;;4.35;3.95;;;27.60;96.00;;;;;;5048976;28;20230;-43
2023/06/04 11:26:36;;;;;;;6.70;4.15;;;27.70;96.70;;;;;;5034554;28;20193;-43
2023/06/04 11:29:07;;;;;;;4.55;4.15;;;28.10;95.90;;;;;;5050438;28;20182;-43
2023/06/04 11:31:46;;;;;;;5.07;4.00;;;28.30;96.10;;;;;;5034931;28;20197;-43
2023/06/04 11:34:30;;;;;;;5.47;4.40;;;28.60;96.00;;;;;;5050619;28;20781;-43
2023/06/04 11:36:55;;;;;;;5.10;4.47;;;28.90;94.80;;;;;;5026043;28;20206;-43
2023/06/04 11:39:22;;;;;;;4.82;4.32;;;29.20;94.10;;;;;;5047734;28;20185;-43
2023/06/04 11:41:50;;;;;;;8.30;4.38;;;29.40;93.90;;;;;;5043196;28;20198;-43
2023/06/04 11:44:19;;;;;;;4.50;4.10;;;29.30;93.80;;;;;;5033574;28;20227;-44
2023/06/04 11:46:45;;;;;;;5.38;4.45;;;29.10;93.20;;;;;;5033436;28;20204;-43
2023/06/04 11:49:18;;;;;;;5.88;4.68;;;28.90;93.00;;;;;;5048737;28;20236;-43
2023/06/04 11:51:52;;;;;;;6.28;4.78;;;29.20;94.10;;;;;;5048664;28;20173;-43
2023/06/04 11:54:20;;;;;;;6.70;4.35;;;29.00;92.70;;;;;;5050860;28;20229;-43
2023/06/04 11:56:48;;;;;;;6.38;4.72;;;29.20;92.20;;;;;;5050559;28;20267;-43
2023/06/04 11:59:15;;;;;;;6.35;4.25;;;29.50;93.10;;;;;;5048931;28;20246;-43
2023/06/04 12:01:43;;;;;;;4.60;4.20;;;29.60;92.70;;;;;;5033567;28;20185;-43
2023/06/04 12:04:16;;;;;;;5.07;4.53;;;29.50;93.20;;;;;;5042193;28;20201;-43
2023/06/04 12:07:00;;;;;;;5.20;4.78;;;29.30;92.60;;;;;;5049911;28;20189;-43
2023/06/04 12:09:37;;;;;;;6.88;4.70;;;28.50;93.50;;;;;;5048039;28;20259;-43
2023/06/04 12:12:05;;;;;;;4.82;4.35;;;28.40;93.60;;;;;;5033842;28;20190;-43
2023/06/04 12:14:31;;;;;;;6.35;5.07;;;28.50;92.80;;;;;;5050159;28;20209;-43
2023/06/04 12:16:59;;;;;;;4.72;4.20;;;28.70;93.00;;;;;;5033124;28;20209;-43
2023/06/04 12:19:26;;;;;;;5.50;4.00;;;28.70;91.70;;;;;;5050453;28;20200;-43
2023/06/04 12:22:06;;;;;;;6.68;4.60;;;29.10;93.10;;;;;;5056272;28;20188;-43
2023/06/04 12:24:53;;;;;;;7.00;4.93;;;29.20;92.90;;;;;;5065031;28;20288;-43
2023/06/04 12:27:21;;;;;;;5.13;4.28;;;29.10;91.80;;;;;;5032992;28;20216;-43
2023/06/04 12:30:00;;;;;;;5.20;4.20;;;29.00;92.50;;;;;;5041961;28;20186;-43
2023/06/04 12:32:26;;;;;;;5.07;4.50;;;28.90;92.60;;;;;;5042055;28;20185;-43
2023/06/04 12:34:52;;;;;;;5.95;4.55;;;29.00;92.30;;;;;;5042275;28;20215;-43
2023/06/04 12:37:18;;;;;;;7.35;4.72;;;29.30;91.80;;;;;;5049135;28;20217;-43
2023/06/04 12:39:44;;;;;;;5.93;4.70;;;29.40;91.50;;;;;;5037696;28;20232;-43
2023/06/04 12:42:10;;;;;;;6.22;4.47;;;29.50;91.10;;;;;;5031342;28;20190;-43
2023/06/04 12:44:36;;;;;;;5.80;4.55;;;29.40;91.10;;;;;;5033712;28;20205;-43
2023/06/04 12:47:03;;;;;;;6.07;4.45;;;29.70;92.70;;;;;;5032640;28;20186;-43